sensor_id;sensor_type;location;lat;lon;timestamp;P1;durP1;ratioP1;P2;durP2;ratioP2
19285;SDS011;9776;50.798;6.430;2023-02-11T00:00:59;7.85;;;7.25;;
19285;SDS011;9776;50.798;6.430;2023-02-11T00:03:26;8.25;;;7.55;;
19285;SDS011;9776;50.798;6.430;2023-02-11T00:05:56;7.60;;;7.00;;
19285;SDS011;9776;50.798;6.430;2023-02-11T00:08:24;7.75;;;7.15;;
19285;SDS011;9776;50.798;6.430;2023-02-11T00:10:51;8.05;;;7.35;;
19285;SDS011;9776;50.798;6.430;2023-02-11T00:13:18;8.13;;;7.43;;
19285;SDS011;9776;50.798;6.430;2023-02-11T00:15:46;7.82;;;7.15;;
19285;SDS011;9776;50.798;6.430;2023-02-11T00:18:13;8.27;;;7.57;;
19285;SDS011;9776;50.798;6.430;2023-02-11T00:20:40;7.45;;;6.78;;
19285;SDS011;9776;50.798;6.430;2023-02-11T00:23:08;7.13;;;6.63;;
19285;SDS011;9776;50.798;6.430;2023-02-11T00:25:37;8.20;;;7.60;;
19285;SDS011;9776;50.798;6.430;2023-02-11T00:28:04;7.95;;;7.32;;
19285;SDS011;9776;50.798;6.430;2023-02-11T00:30:31;7.85;;;7.25;;
19285;SDS011;9776;50.798;6.430;2023-02-11T00:32:59;7.95;;;7.25;;
19285;SDS011;9776;50.798;6.430;2023-02-11T00:35:26;8.43;;;7.72;;
19285;SDS011;9776;50.798;6.430;2023-02-11T00:37:53;8.20;;;7.50;;
19285;SDS011;9776;50.798;6.430;2023-02-11T00:40:20;7.55;;;6.95;;
19285;SDS011;9776;50.798;6.430;2023-02-11T00:42:47;7.85;;;7.25;;
19285;SDS011;9776;50.798;6.430;2023-02-11T00:45:14;8.68;;;7.93;;
19285;SDS011;9776;50.798;6.430;2023-02-11T00:47:40;8.23;;;7.53;;
19285;SDS011;9776;50.798;6.430;2023-02-11T00:50:09;9.20;;;8.40;;
19285;SDS011;9776;50.798;6.430;2023-02-11T00:52:35;8.98;;;8.20;;
19285;SDS011;9776;50.798;6.430;2023-02-11T00:55:02;8.70;;;7.97;;
19285;SDS011;9776;50.798;6.430;2023-02-11T00:57:29;9.52;;;8.73;;
19285;SDS011;9776;50.798;6.430;2023-02-11T00:59:56;8.88;;;8.18;;
19285;SDS011;9776;50.798;6.430;2023-02-11T01:02:22;9.57;;;8.77;;
19285;SDS011;9776;50.798;6.430;2023-02-11T01:04:49;8.85;;;8.07;;
19285;SDS011;9776;50.798;6.430;2023-02-11T01:07:17;9.73;;;8.82;;
19285;SDS011;9776;50.798;6.430;2023-02-11T01:09:44;9.57;;;8.82;;
19285;SDS011;9776;50.798;6.430;2023-02-11T01:12:11;9.18;;;8.38;;
19285;SDS011;9776;50.798;6.430;2023-02-11T01:14:37;9.20;;;8.43;;
19285;SDS011;9776;50.798;6.430;2023-02-11T01:17:04;9.20;;;8.40;;
19285;SDS011;9776;50.798;6.430;2023-02-11T01:19:31;10.35;;;9.35;;
19285;SDS011;9776;50.798;6.430;2023-02-11T01:21:58;9.63;;;8.80;;
19285;SDS011;9776;50.798;6.430;2023-02-11T01:24:26;9.77;;;8.95;;
19285;SDS011;9776;50.798;6.430;2023-02-11T01:26:53;10.00;;;9.20;;
19285;SDS011;9776;50.798;6.430;2023-02-11T01:29:20;9.63;;;8.77;;
19285;SDS011;9776;50.798;6.430;2023-02-11T01:31:47;9.57;;;8.77;;
19285;SDS011;9776;50.798;6.430;2023-02-11T01:34:14;9.60;;;8.80;;
19285;SDS011;9776;50.798;6.430;2023-02-11T01:36:41;8.95;;;8.25;;
19285;SDS011;9776;50.798;6.430;2023-02-11T01:39:08;9.95;;;9.15;;
19285;SDS011;9776;50.798;6.430;2023-02-11T01:41:36;10.20;;;9.40;;
19285;SDS011;9776;50.798;6.430;2023-02-11T01:46:54;9.75;;;8.85;;
19285;SDS011;9776;50.798;6.430;2023-02-11T01:49:22;10.25;;;9.32;;
19285;SDS011;9776;50.798;6.430;2023-02-11T01:51:53;9.80;;;8.98;;
19285;SDS011;9776;50.798;6.430;2023-02-11T01:54:24;10.80;;;9.90;;
19285;SDS011;9776;50.798;6.430;2023-02-11T01:57:14;10.52;;;9.63;;
19285;SDS011;9776;50.798;6.430;2023-02-11T01:59:58;10.32;;;9.50;;
19285;SDS011;9776;50.798;6.430;2023-02-11T02:02:32;9.98;;;9.07;;
19285;SDS011;9776;50.798;6.430;2023-02-11T02:05:16;9.57;;;8.77;;
19285;SDS011;9776;50.798;6.430;2023-02-11T02:07:51;10.07;;;9.27;;
19285;SDS011;9776;50.798;6.430;2023-02-11T02:10:25;9.77;;;8.98;;
19285;SDS011;9776;50.798;6.430;2023-02-11T02:12:55;10.75;;;9.85;;
19285;SDS011;9776;50.798;6.430;2023-02-11T02:15:24;10.60;;;9.77;;
19285;SDS011;9776;50.798;6.430;2023-02-11T02:17:56;10.48;;;9.60;;
19285;SDS011;9776;50.798;6.430;2023-02-11T02:20:44;10.60;;;9.70;;
19285;SDS011;9776;50.798;6.430;2023-02-11T02:23:50;10.35;;;9.45;;
19285;SDS011;9776;50.798;6.430;2023-02-11T02:35:33;9.80;;;9.00;;
19285;SDS011;9776;50.798;6.430;2023-02-11T02:38:06;10.02;;;9.15;;
19285;SDS011;9776;50.798;6.430;2023-02-11T02:40:40;9.93;;;9.13;;
19285;SDS011;9776;50.798;6.430;2023-02-11T02:43:11;10.35;;;9.35;;
19285;SDS011;9776;50.798;6.430;2023-02-11T02:45:40;10.35;;;9.48;;
19285;SDS011;9776;50.798;6.430;2023-02-11T02:48:21;10.50;;;9.50;;
19285;SDS011;9776;50.798;6.430;2023-02-11T02:50:50;10.07;;;9.23;;
19285;SDS011;9776;50.798;6.430;2023-02-11T02:53:29;10.00;;;9.18;;
19285;SDS011;9776;50.798;6.430;2023-02-11T02:56:05;9.55;;;8.75;;
19285;SDS011;9776;50.798;6.430;2023-02-11T02:58:49;10.13;;;9.23;;
19285;SDS011;9776;50.798;6.430;2023-02-11T03:01:30;10.15;;;9.25;;
19285;SDS011;9776;50.798;6.430;2023-02-11T03:04:09;9.52;;;8.73;;
19285;SDS011;9776;50.798;6.430;2023-02-11T03:06:44;10.30;;;9.40;;
19285;SDS011;9776;50.798;6.430;2023-02-11T03:09:15;9.80;;;8.90;;
19285;SDS011;9776;50.798;6.430;2023-02-11T03:11:47;9.43;;;8.63;;
19285;SDS011;9776;50.798;6.430;2023-02-11T03:14:14;9.35;;;8.65;;
19285;SDS011;9776;50.798;6.430;2023-02-11T03:16:43;9.60;;;8.82;;
19285;SDS011;9776;50.798;6.430;2023-02-11T03:19:16;9.65;;;8.90;;
19285;SDS011;9776;50.798;6.430;2023-02-11T03:21:46;10.25;;;9.25;;
19285;SDS011;9776;50.798;6.430;2023-02-11T03:24:16;10.52;;;9.63;;
19285;SDS011;9776;50.798;6.430;2023-02-11T03:26:47;9.25;;;8.45;;
19285;SDS011;9776;50.798;6.430;2023-02-11T03:29:17;9.10;;;8.40;;
19285;SDS011;9776;50.798;6.430;2023-02-11T03:31:57;9.35;;;8.55;;
19285;SDS011;9776;50.798;6.430;2023-02-11T03:34:31;8.90;;;8.10;;
19285;SDS011;9776;50.798;6.430;2023-02-11T03:37:06;8.98;;;8.27;;
19285;SDS011;9776;50.798;6.430;2023-02-11T03:39:38;8.85;;;8.15;;
19285;SDS011;9776;50.798;6.430;2023-02-11T03:42:06;9.05;;;8.27;;
19285;SDS011;9776;50.798;6.430;2023-02-11T03:44:38;8.95;;;8.25;;
19285;SDS011;9776;50.798;6.430;2023-02-11T03:47:09;9.45;;;8.65;;
19285;SDS011;9776;50.798;6.430;2023-02-11T03:49:40;9.65;;;8.85;;
19285;SDS011;9776;50.798;6.430;2023-02-11T03:52:08;9.50;;;8.60;;
19285;SDS011;9776;50.798;6.430;2023-02-11T03:54:37;9.23;;;8.48;;
19285;SDS011;9776;50.798;6.430;2023-02-11T03:57:07;8.63;;;7.82;;
19285;SDS011;9776;50.798;6.430;2023-02-11T03:59:47;9.68;;;8.85;;
19285;SDS011;9776;50.798;6.430;2023-02-11T04:02:15;9.23;;;8.32;;
19285;SDS011;9776;50.798;6.430;2023-02-11T04:04:43;9.70;;;8.80;;
19285;SDS011;9776;50.798;6.430;2023-02-11T04:07:10;8.93;;;8.10;;
19285;SDS011;9776;50.798;6.430;2023-02-11T04:09:37;8.98;;;8.18;;
19285;SDS011;9776;50.798;6.430;2023-02-11T04:12:04;9.68;;;8.77;;
19285;SDS011;9776;50.798;6.430;2023-02-11T04:14:31;9.35;;;8.45;;
19285;SDS011;9776;50.798;6.430;2023-02-11T04:16:58;9.02;;;8.20;;
19285;SDS011;9776;50.798;6.430;2023-02-11T04:19:25;8.85;;;8.15;;
19285;SDS011;9776;50.798;6.430;2023-02-11T04:21:53;9.10;;;8.30;;
19285;SDS011;9776;50.798;6.430;2023-02-11T04:24:20;9.63;;;8.73;;
19285;SDS011;9776;50.798;6.430;2023-02-11T04:26:47;9.13;;;8.32;;
19285;SDS011;9776;50.798;6.430;2023-02-11T04:29:13;9.63;;;8.82;;
19285;SDS011;9776;50.798;6.430;2023-02-11T04:31:40;9.73;;;8.93;;
19285;SDS011;9776;50.798;6.430;2023-02-11T04:34:07;9.60;;;8.70;;
19285;SDS011;9776;50.798;6.430;2023-02-11T04:36:33;9.30;;;8.50;;
19285;SDS011;9776;50.798;6.430;2023-02-11T04:39:02;10.52;;;9.63;;
19285;SDS011;9776;50.798;6.430;2023-02-11T04:41:29;9.85;;;8.85;;
19285;SDS011;9776;50.798;6.430;2023-02-11T04:43:56;8.88;;;8.13;;
19285;SDS011;9776;50.798;6.430;2023-02-11T04:46:22;9.63;;;8.80;;
19285;SDS011;9776;50.798;6.430;2023-02-11T04:48:49;9.50;;;8.68;;
19285;SDS011;9776;50.798;6.430;2023-02-11T04:51:16;9.02;;;8.23;;
19285;SDS011;9776;50.798;6.430;2023-02-11T04:53:43;9.27;;;8.40;;
19285;SDS011;9776;50.798;6.430;2023-02-11T04:56:11;10.00;;;9.10;;
19285;SDS011;9776;50.798;6.430;2023-02-11T04:58:38;9.48;;;8.68;;
19285;SDS011;9776;50.798;6.430;2023-02-11T05:01:05;9.13;;;8.30;;
19285;SDS011;9776;50.798;6.430;2023-02-11T05:03:32;8.50;;;7.80;;
19285;SDS011;9776;50.798;6.430;2023-02-11T05:05:58;9.18;;;8.48;;
19285;SDS011;9776;50.798;6.430;2023-02-11T05:08:25;8.80;;;8.02;;
19285;SDS011;9776;50.798;6.430;2023-02-11T05:10:52;8.93;;;8.13;;
19285;SDS011;9776;50.798;6.430;2023-02-11T05:13:20;9.55;;;8.75;;
19285;SDS011;9776;50.798;6.430;2023-02-11T05:15:47;9.23;;;8.35;;
19285;SDS011;9776;50.798;6.430;2023-02-11T05:18:14;9.05;;;8.35;;
19285;SDS011;9776;50.798;6.430;2023-02-11T05:20:41;9.05;;;8.35;;
19285;SDS011;9776;50.798;6.430;2023-02-11T05:23:08;9.73;;;8.82;;
19285;SDS011;9776;50.798;6.430;2023-02-11T05:25:35;9.60;;;8.73;;
19285;SDS011;9776;50.798;6.430;2023-02-11T05:28:02;8.65;;;7.90;;
19285;SDS011;9776;50.798;6.430;2023-02-11T05:30:31;9.32;;;8.52;;
19285;SDS011;9776;50.798;6.430;2023-02-11T05:32:58;8.73;;;7.93;;
19285;SDS011;9776;50.798;6.430;2023-02-11T05:35:25;8.45;;;7.78;;
19285;SDS011;9776;50.798;6.430;2023-02-11T05:37:51;9.75;;;8.85;;
19285;SDS011;9776;50.798;6.430;2023-02-11T05:40:18;9.07;;;8.27;;
19285;SDS011;9776;50.798;6.430;2023-02-11T05:42:45;7.75;;;7.07;;
19285;SDS011;9776;50.798;6.430;2023-02-11T05:45:11;8.73;;;8.02;;
19285;SDS011;9776;50.798;6.430;2023-02-11T05:47:39;8.45;;;7.72;;
19285;SDS011;9776;50.798;6.430;2023-02-11T05:50:06;8.73;;;7.97;;
19285;SDS011;9776;50.798;6.430;2023-02-11T05:52:33;8.27;;;7.60;;
19285;SDS011;9776;50.798;6.430;2023-02-11T05:55:00;8.65;;;7.90;;
19285;SDS011;9776;50.798;6.430;2023-02-11T05:57:27;8.52;;;7.82;;
19285;SDS011;9776;50.798;6.430;2023-02-11T05:59:53;8.15;;;7.55;;
19285;SDS011;9776;50.798;6.430;2023-02-11T06:02:20;7.78;;;7.07;;
19285;SDS011;9776;50.798;6.430;2023-02-11T06:04:48;8.30;;;7.70;;
19285;SDS011;9776;50.798;6.430;2023-02-11T06:07:15;8.20;;;7.50;;
19285;SDS011;9776;50.798;6.430;2023-02-11T06:09:43;8.43;;;7.72;;
19285;SDS011;9776;50.798;6.430;2023-02-11T06:12:10;8.13;;;7.43;;
19285;SDS011;9776;50.798;6.430;2023-02-11T06:14:37;7.78;;;7.18;;
19285;SDS011;9776;50.798;6.430;2023-02-11T06:17:03;7.25;;;6.75;;
19285;SDS011;9776;50.798;6.430;2023-02-11T06:19:30;8.02;;;7.32;;
19285;SDS011;9776;50.798;6.430;2023-02-11T06:21:58;8.30;;;7.60;;
19285;SDS011;9776;50.798;6.430;2023-02-11T06:24:25;8.20;;;7.50;;
19285;SDS011;9776;50.798;6.430;2023-02-11T06:26:52;7.82;;;7.22;;
19285;SDS011;9776;50.798;6.430;2023-02-11T06:29:18;7.75;;;7.15;;
19285;SDS011;9776;50.798;6.430;2023-02-11T06:31:45;7.82;;;7.22;;
19285;SDS011;9776;50.798;6.430;2023-02-11T06:34:12;7.57;;;6.97;;
19285;SDS011;9776;50.798;6.430;2023-02-11T06:36:38;7.15;;;6.60;;
19285;SDS011;9776;50.798;6.430;2023-02-11T06:39:08;7.45;;;6.85;;
19285;SDS011;9776;50.798;6.430;2023-02-11T06:41:36;7.60;;;6.93;;
19285;SDS011;9776;50.798;6.430;2023-02-11T06:44:03;7.65;;;7.05;;
19285;SDS011;9776;50.798;6.430;2023-02-11T06:46:30;7.40;;;6.80;;
19285;SDS011;9776;50.798;6.430;2023-02-11T06:48:56;7.22;;;6.53;;
19285;SDS011;9776;50.798;6.430;2023-02-11T06:51:23;7.55;;;6.95;;
19285;SDS011;9776;50.798;6.430;2023-02-11T06:53:50;7.15;;;6.55;;
19285;SDS011;9776;50.798;6.430;2023-02-11T06:56:19;7.50;;;6.80;;
19285;SDS011;9776;50.798;6.430;2023-02-11T06:58:50;7.18;;;6.68;;
19285;SDS011;9776;50.798;6.430;2023-02-11T07:01:18;7.75;;;7.15;;
19285;SDS011;9776;50.798;6.430;2023-02-11T07:03:45;7.32;;;6.72;;
19285;SDS011;9776;50.798;6.430;2023-02-11T07:06:13;7.68;;;7.07;;
19285;SDS011;9776;50.798;6.430;2023-02-11T07:08:41;8.00;;;7.20;;
19285;SDS011;9776;50.798;6.430;2023-02-11T07:11:10;8.25;;;7.55;;
19285;SDS011;9776;50.798;6.430;2023-02-11T07:13:39;8.30;;;7.70;;
19285;SDS011;9776;50.798;6.430;2023-02-11T07:16:06;7.85;;;7.18;;
19285;SDS011;9776;50.798;6.430;2023-02-11T07:18:34;7.88;;;7.30;;
19285;SDS011;9776;50.798;6.430;2023-02-11T07:21:03;8.52;;;7.88;;
19285;SDS011;9776;50.798;6.430;2023-02-11T07:23:30;7.90;;;7.30;;
19285;SDS011;9776;50.798;6.430;2023-02-11T07:26:00;7.85;;;7.25;;
19285;SDS011;9776;50.798;6.430;2023-02-11T07:28:28;7.75;;;7.15;;
19285;SDS011;9776;50.798;6.430;2023-02-11T07:30:57;7.25;;;6.75;;
19285;SDS011;9776;50.798;6.430;2023-02-11T07:33:23;8.18;;;7.38;;
19285;SDS011;9776;50.798;6.430;2023-02-11T07:35:50;7.80;;;7.20;;
19285;SDS011;9776;50.798;6.430;2023-02-11T07:38:17;7.95;;;7.35;;
19285;SDS011;9776;50.798;6.430;2023-02-11T07:40:43;9.27;;;8.57;;
19285;SDS011;9776;50.798;6.430;2023-02-11T07:43:10;9.95;;;9.13;;
19285;SDS011;9776;50.798;6.430;2023-02-11T07:45:37;8.93;;;8.02;;
19285;SDS011;9776;50.798;6.430;2023-02-11T07:48:05;8.77;;;8.02;;
19285;SDS011;9776;50.798;6.430;2023-02-11T07:50:32;8.38;;;7.68;;
19285;SDS011;9776;50.798;6.430;2023-02-11T07:52:59;8.27;;;7.57;;
19285;SDS011;9776;50.798;6.430;2023-02-11T07:55:25;8.23;;;7.53;;
19285;SDS011;9776;50.798;6.430;2023-02-11T07:57:52;9.10;;;8.30;;
19285;SDS011;9776;50.798;6.430;2023-02-11T08:00:19;8.05;;;7.45;;
19285;SDS011;9776;50.798;6.430;2023-02-11T08:02:46;8.40;;;7.70;;
19285;SDS011;9776;50.798;6.430;2023-02-11T08:05:14;8.38;;;7.68;;
19285;SDS011;9776;50.798;6.430;2023-02-11T08:07:40;7.80;;;7.20;;
19285;SDS011;9776;50.798;6.430;2023-02-11T08:10:07;9.63;;;8.82;;
19285;SDS011;9776;50.798;6.430;2023-02-11T08:12:34;8.00;;;7.40;;
19285;SDS011;9776;50.798;6.430;2023-02-11T08:15:01;8.27;;;7.60;;
19285;SDS011;9776;50.798;6.430;2023-02-11T08:17:28;8.38;;;7.68;;
19285;SDS011;9776;50.798;6.430;2023-02-11T08:19:54;8.50;;;7.82;;
19285;SDS011;9776;50.798;6.430;2023-02-11T08:22:22;8.75;;;8.07;;
19285;SDS011;9776;50.798;6.430;2023-02-11T08:24:49;9.05;;;8.35;;
19285;SDS011;9776;50.798;6.430;2023-02-11T08:27:16;9.15;;;8.45;;
19285;SDS011;9776;50.798;6.430;2023-02-11T08:29:42;8.48;;;7.78;;
19285;SDS011;9776;50.798;6.430;2023-02-11T08:32:09;8.50;;;7.80;;
19285;SDS011;9776;50.798;6.430;2023-02-11T08:34:36;8.30;;;7.63;;
19285;SDS011;9776;50.798;6.430;2023-02-11T08:37:02;8.23;;;7.63;;
19285;SDS011;9776;50.798;6.430;2023-02-11T08:39:31;7.93;;;7.32;;
19285;SDS011;9776;50.798;6.430;2023-02-11T08:41:57;8.88;;;8.18;;
19285;SDS011;9776;50.798;6.430;2023-02-11T08:44:24;8.05;;;7.35;;
19285;SDS011;9776;50.798;6.430;2023-02-11T08:46:51;8.20;;;7.60;;
19285;SDS011;9776;50.798;6.430;2023-02-11T08:49:18;8.18;;;7.47;;
19285;SDS011;9776;50.798;6.430;2023-02-11T08:51:45;8.48;;;7.78;;
19285;SDS011;9776;50.798;6.430;2023-02-11T08:54:12;8.85;;;8.15;;
19285;SDS011;9776;50.798;6.430;2023-02-11T08:56:41;9.20;;;8.40;;
19285;SDS011;9776;50.798;6.430;2023-02-11T08:59:09;8.30;;;7.60;;
19285;SDS011;9776;50.798;6.430;2023-02-11T09:01:38;8.40;;;7.70;;
19285;SDS011;9776;50.798;6.430;2023-02-11T09:04:04;7.70;;;7.00;;
19285;SDS011;9776;50.798;6.430;2023-02-11T09:06:31;7.68;;;7.07;;
19285;SDS011;9776;50.798;6.430;2023-02-11T09:08:58;9.00;;;8.23;;
19285;SDS011;9776;50.798;6.430;2023-02-11T09:11:26;8.30;;;7.65;;
19285;SDS011;9776;50.798;6.430;2023-02-11T09:13:56;8.52;;;7.72;;
19285;SDS011;9776;50.798;6.430;2023-02-11T09:16:24;8.65;;;7.85;;
19285;SDS011;9776;50.798;6.430;2023-02-11T09:18:53;7.72;;;7.13;;
19285;SDS011;9776;50.798;6.430;2023-02-11T09:21:22;8.30;;;7.60;;
19285;SDS011;9776;50.798;6.430;2023-02-11T09:23:48;7.40;;;6.80;;
19285;SDS011;9776;50.798;6.430;2023-02-11T09:26:16;8.60;;;7.93;;
19285;SDS011;9776;50.798;6.430;2023-02-11T09:28:44;10.60;;;9.70;;
19285;SDS011;9776;50.798;6.430;2023-02-11T09:31:14;8.45;;;7.75;;
19285;SDS011;9776;50.798;6.430;2023-02-11T09:33:42;9.07;;;8.35;;
19285;SDS011;9776;50.798;6.430;2023-02-11T09:36:13;8.88;;;8.18;;
19285;SDS011;9776;50.798;6.430;2023-02-11T09:38:41;8.93;;;8.23;;
19285;SDS011;9776;50.798;6.430;2023-02-11T09:41:13;8.30;;;7.63;;
19285;SDS011;9776;50.798;6.430;2023-02-11T09:43:53;7.90;;;7.30;;
19285;SDS011;9776;50.798;6.430;2023-02-11T09:46:24;7.97;;;7.28;;
19285;SDS011;9776;50.798;6.430;2023-02-11T09:48:52;7.38;;;6.78;;
19285;SDS011;9776;50.798;6.430;2023-02-11T09:51:23;8.63;;;7.93;;
19285;SDS011;9776;50.798;6.430;2023-02-11T09:53:59;7.35;;;6.75;;
19285;SDS011;9776;50.798;6.430;2023-02-11T09:56:32;8.10;;;7.40;;
19285;SDS011;9776;50.798;6.430;2023-02-11T09:58:59;7.72;;;7.05;;
19285;SDS011;9776;50.798;6.430;2023-02-11T10:01:29;8.10;;;7.50;;
19285;SDS011;9776;50.798;6.430;2023-02-11T10:04:03;7.50;;;6.90;;
19285;SDS011;9776;50.798;6.430;2023-02-11T10:06:38;7.55;;;6.95;;
19285;SDS011;9776;50.798;6.430;2023-02-11T10:09:11;7.25;;;6.65;;
19285;SDS011;9776;50.798;6.430;2023-02-11T10:11:57;7.43;;;6.82;;
19285;SDS011;9776;50.798;6.430;2023-02-11T10:17:33;7.15;;;6.60;;
19285;SDS011;9776;50.798;6.430;2023-02-11T10:20:14;7.03;;;6.53;;
19285;SDS011;9776;50.798;6.430;2023-02-11T10:22:49;6.88;;;6.38;;
19285;SDS011;9776;50.798;6.430;2023-02-11T10:25:21;7.72;;;7.13;;
19285;SDS011;9776;50.798;6.430;2023-02-11T10:27:50;7.32;;;6.82;;
19285;SDS011;9776;50.798;6.430;2023-02-11T10:30:20;8.05;;;7.40;;
19285;SDS011;9776;50.798;6.430;2023-02-11T10:32:55;7.90;;;7.30;;
19285;SDS011;9776;50.798;6.430;2023-02-11T10:35:25;7.35;;;6.75;;
19285;SDS011;9776;50.798;6.430;2023-02-11T10:37:52;8.18;;;7.47;;
19285;SDS011;9776;50.798;6.430;2023-02-11T10:40:21;8.20;;;7.60;;
19285;SDS011;9776;50.798;6.430;2023-02-11T10:42:49;7.53;;;6.93;;
19285;SDS011;9776;50.798;6.430;2023-02-11T10:45:20;7.50;;;7.00;;
19285;SDS011;9776;50.798;6.430;2023-02-11T10:47:52;7.85;;;7.25;;
19285;SDS011;9776;50.798;6.430;2023-02-11T10:50:23;8.30;;;7.70;;
19285;SDS011;9776;50.798;6.430;2023-02-11T10:52:51;7.35;;;6.85;;
19285;SDS011;9776;50.798;6.430;2023-02-11T10:55:18;8.25;;;7.55;;
19285;SDS011;9776;50.798;6.430;2023-02-11T10:57:49;7.38;;;6.85;;
19285;SDS011;9776;50.798;6.430;2023-02-11T11:00:25;8.02;;;7.43;;
19285;SDS011;9776;50.798;6.430;2023-02-11T11:03:00;8.02;;;7.43;;
19285;SDS011;9776;50.798;6.430;2023-02-11T11:05:31;8.23;;;7.60;;
19285;SDS011;9776;50.798;6.430;2023-02-11T11:08:01;7.82;;;7.22;;
19285;SDS011;9776;50.798;6.430;2023-02-11T11:10:36;9.07;;;8.38;;
19285;SDS011;9776;50.798;6.430;2023-02-11T11:18:51;8.68;;;7.97;;
19285;SDS011;9776;50.798;6.430;2023-02-11T11:21:22;8.93;;;8.23;;
19285;SDS011;9776;50.798;6.430;2023-02-11T11:23:51;8.90;;;8.10;;
19285;SDS011;9776;50.798;6.430;2023-02-11T11:26:21;9.57;;;8.77;;
19285;SDS011;9776;50.798;6.430;2023-02-11T11:28:50;8.65;;;7.93;;
19285;SDS011;9776;50.798;6.430;2023-02-11T11:31:27;9.07;;;8.30;;
19285;SDS011;9776;50.798;6.430;2023-02-11T11:33:57;9.30;;;8.50;;
19285;SDS011;9776;50.798;6.430;2023-02-11T11:36:31;8.57;;;7.88;;
19285;SDS011;9776;50.798;6.430;2023-02-11T11:39:02;8.32;;;7.72;;
19285;SDS011;9776;50.798;6.430;2023-02-11T11:41:54;9.07;;;8.30;;
19285;SDS011;9776;50.798;6.430;2023-02-11T11:44:29;8.00;;;7.40;;
19285;SDS011;9776;50.798;6.430;2023-02-11T11:47:12;9.55;;;8.77;;
19285;SDS011;9776;50.798;6.430;2023-02-11T11:49:54;8.82;;;8.07;;
19285;SDS011;9776;50.798;6.430;2023-02-11T11:52:45;9.30;;;8.50;;
19285;SDS011;9776;50.798;6.430;2023-02-11T11:55:16;9.70;;;8.90;;
19285;SDS011;9776;50.798;6.430;2023-02-11T11:57:45;8.77;;;8.00;;
19285;SDS011;9776;50.798;6.430;2023-02-11T12:00:14;9.32;;;8.52;;
19285;SDS011;9776;50.798;6.430;2023-02-11T12:06:01;9.00;;;8.20;;
19285;SDS011;9776;50.798;6.430;2023-02-11T12:08:40;9.52;;;8.73;;
19285;SDS011;9776;50.798;6.430;2023-02-11T12:11:15;9.52;;;8.73;;
19285;SDS011;9776;50.798;6.430;2023-02-11T12:13:53;9.20;;;8.50;;
19285;SDS011;9776;50.798;6.430;2023-02-11T12:16:30;10.63;;;9.73;;
19285;SDS011;9776;50.798;6.430;2023-02-11T12:19:16;11.25;;;10.25;;
19285;SDS011;9776;50.798;6.430;2023-02-11T12:21:59;9.90;;;9.07;;
19285;SDS011;9776;50.798;6.430;2023-02-11T12:24:40;9.70;;;8.90;;
19285;SDS011;9776;50.798;6.430;2023-02-11T12:27:20;9.55;;;8.75;;
19285;SDS011;9776;50.798;6.430;2023-02-11T12:29:59;9.57;;;8.77;;
19285;SDS011;9776;50.798;6.430;2023-02-11T12:32:36;9.70;;;8.90;;
19285;SDS011;9776;50.798;6.430;2023-02-11T12:35:14;9.68;;;8.88;;
19285;SDS011;9776;50.798;6.430;2023-02-11T12:37:57;10.25;;;9.38;;
19285;SDS011;9776;50.798;6.430;2023-02-11T12:40:42;10.43;;;9.52;;
19285;SDS011;9776;50.798;6.430;2023-02-11T12:43:13;10.18;;;9.27;;
19285;SDS011;9776;50.798;6.430;2023-02-11T12:45:52;10.93;;;10.02;;
19285;SDS011;9776;50.798;6.430;2023-02-11T12:48:42;10.38;;;9.48;;
19285;SDS011;9776;50.798;6.430;2023-02-11T12:51:24;10.13;;;9.30;;
19285;SDS011;9776;50.798;6.430;2023-02-11T12:54:04;9.98;;;9.18;;
19285;SDS011;9776;50.798;6.430;2023-02-11T12:56:45;10.60;;;9.70;;
19285;SDS011;9776;50.798;6.430;2023-02-11T12:59:19;10.00;;;9.20;;
19285;SDS011;9776;50.798;6.430;2023-02-11T13:01:56;9.88;;;9.00;;
19285;SDS011;9776;50.798;6.430;2023-02-11T13:04:27;10.05;;;9.23;;
19285;SDS011;9776;50.798;6.430;2023-02-11T13:06:59;9.80;;;9.00;;
19285;SDS011;9776;50.798;6.430;2023-02-11T13:09:32;9.57;;;8.77;;
19285;SDS011;9776;50.798;6.430;2023-02-11T13:12:05;10.25;;;9.35;;
19285;SDS011;9776;50.798;6.430;2023-02-11T13:14:52;9.77;;;8.90;;
19285;SDS011;9776;50.798;6.430;2023-02-11T13:17:24;9.98;;;9.13;;
19285;SDS011;9776;50.798;6.430;2023-02-11T13:19:59;9.50;;;8.65;;
19285;SDS011;9776;50.798;6.430;2023-02-11T13:22:38;9.70;;;8.90;;
19285;SDS011;9776;50.798;6.430;2023-02-11T13:25:14;13.25;;;12.20;;
19285;SDS011;9776;50.798;6.430;2023-02-11T13:27:53;9.30;;;8.50;;
19285;SDS011;9776;50.798;6.430;2023-02-11T13:30:24;10.10;;;9.30;;
19285;SDS011;9776;50.798;6.430;2023-02-11T13:33:19;10.73;;;9.82;;
19285;SDS011;9776;50.798;6.430;2023-02-11T13:36:09;10.05;;;9.25;;
19285;SDS011;9776;50.798;6.430;2023-02-11T13:38:55;9.18;;;8.48;;
19285;SDS011;9776;50.798;6.430;2023-02-11T13:41:26;9.40;;;8.60;;
19285;SDS011;9776;50.798;6.430;2023-02-11T13:43:58;10.30;;;9.48;;
19285;SDS011;9776;50.798;6.430;2023-02-11T13:46:28;8.70;;;8.00;;
19285;SDS011;9776;50.798;6.430;2023-02-11T13:49:17;9.20;;;8.40;;
19285;SDS011;9776;50.798;6.430;2023-02-11T13:51:45;10.07;;;9.27;;
19285;SDS011;9776;50.798;6.430;2023-02-11T13:54:18;9.27;;;8.57;;
19285;SDS011;9776;50.798;6.430;2023-02-11T13:59:49;9.50;;;8.70;;
19285;SDS011;9776;50.798;6.430;2023-02-11T14:02:22;9.88;;;9.07;;
19285;SDS011;9776;50.798;6.430;2023-02-11T14:08:13;9.02;;;8.32;;
19285;SDS011;9776;50.798;6.430;2023-02-11T14:11:00;9.30;;;8.52;;
19285;SDS011;9776;50.798;6.430;2023-02-11T14:13:31;8.55;;;7.85;;
19285;SDS011;9776;50.798;6.430;2023-02-11T14:16:05;8.40;;;7.70;;
19285;SDS011;9776;50.798;6.430;2023-02-11T14:18:37;8.27;;;7.60;;
19285;SDS011;9776;50.798;6.430;2023-02-11T14:21:29;8.32;;;7.68;;
19285;SDS011;9776;50.798;6.430;2023-02-11T14:27:03;8.48;;;7.78;;
19285;SDS011;9776;50.798;6.430;2023-02-11T14:29:34;7.88;;;7.28;;
19285;SDS011;9776;50.798;6.430;2023-02-11T14:32:10;7.85;;;7.25;;
19285;SDS011;9776;50.798;6.430;2023-02-11T14:34:49;7.22;;;6.63;;
19285;SDS011;9776;50.798;6.430;2023-02-11T14:37:27;7.80;;;7.20;;
19285;SDS011;9776;50.798;6.430;2023-02-11T14:40:09;8.60;;;7.90;;
19285;SDS011;9776;50.798;6.430;2023-02-11T14:42:49;7.55;;;6.95;;
19285;SDS011;9776;50.798;6.430;2023-02-11T14:45:19;7.70;;;7.10;;
19285;SDS011;9776;50.798;6.430;2023-02-11T14:47:52;7.50;;;6.90;;
19285;SDS011;9776;50.798;6.430;2023-02-11T14:50:26;8.13;;;7.47;;
19285;SDS011;9776;50.798;6.430;2023-02-11T14:52:57;8.38;;;7.68;;
19285;SDS011;9776;50.798;6.430;2023-02-11T14:55:28;7.75;;;7.15;;
19285;SDS011;9776;50.798;6.430;2023-02-11T14:58:04;7.43;;;6.85;;
19285;SDS011;9776;50.798;6.430;2023-02-11T15:00:32;7.00;;;6.50;;
19285;SDS011;9776;50.798;6.430;2023-02-11T15:03:00;7.22;;;6.63;;
19285;SDS011;9776;50.798;6.430;2023-02-11T15:05:27;7.15;;;6.55;;
19285;SDS011;9776;50.798;6.430;2023-02-11T15:07:55;7.32;;;6.78;;
19285;SDS011;9776;50.798;6.430;2023-02-11T15:10:26;7.15;;;6.65;;
19285;SDS011;9776;50.798;6.430;2023-02-11T15:12:56;6.65;;;6.15;;
19285;SDS011;9776;50.798;6.430;2023-02-11T15:15:24;6.93;;;6.43;;
19285;SDS011;9776;50.798;6.430;2023-02-11T15:17:52;6.80;;;6.30;;
19285;SDS011;9776;50.798;6.430;2023-02-11T15:20:23;6.50;;;6.00;;
19285;SDS011;9776;50.798;6.430;2023-02-11T15:22:53;6.78;;;6.28;;
19285;SDS011;9776;50.798;6.430;2023-02-11T15:25:22;6.55;;;6.05;;
19285;SDS011;9776;50.798;6.430;2023-02-11T15:27:50;6.75;;;6.25;;
19285;SDS011;9776;50.798;6.430;2023-02-11T15:30:24;6.28;;;5.88;;
19285;SDS011;9776;50.798;6.430;2023-02-11T15:32:54;7.35;;;6.78;;
19285;SDS011;9776;50.798;6.430;2023-02-11T15:35:25;7.25;;;6.75;;
19285;SDS011;9776;50.798;6.430;2023-02-11T15:37:54;7.28;;;6.68;;
19285;SDS011;9776;50.798;6.430;2023-02-11T15:40:23;7.00;;;6.50;;
19285;SDS011;9776;50.798;6.430;2023-02-11T15:42:53;7.32;;;6.72;;
19285;SDS011;9776;50.798;6.430;2023-02-11T15:45:22;7.07;;;6.47;;
19285;SDS011;9776;50.798;6.430;2023-02-11T15:47:53;6.70;;;6.20;;
19285;SDS011;9776;50.798;6.430;2023-02-11T15:50:24;7.20;;;6.60;;
19285;SDS011;9776;50.798;6.430;2023-02-11T15:52:53;7.35;;;6.75;;
19285;SDS011;9776;50.798;6.430;2023-02-11T15:55:21;7.30;;;6.70;;